Time;durP1;ratioP1;P1;durP2;ratioP2;P2;SDS_P1;SDS_P2;PMS_P1;PMS_P2;Temp;Humidity;BMP_temperature;BMP_pressure;BME280_temperature;BME280_humidity;BME280_pressure;Samples;Min_cycle;Max_cycle;Signal;HPM_P1;HPM_P2
2022/04/26 03:37:49;;;;;;;17.10;12.37;;;6.70;1.00;;;;;;6330581;28;20233;-55
2022/04/26 03:40:51;;;;;;;15.13;12.80;;;6.80;1.00;;;;;;6321370;28;20373;-55
2022/04/26 03:43:54;;;;;;;13.07;11.73;;;6.70;1.00;;;;;;6333783;28;20228;-55
2022/04/26 03:46:58;;;;;;;16.93;13.23;;;6.70;1.00;;;;;;6334592;28;20632;-56
2022/04/26 03:50:00;;;;;;;13.23;11.83;;;6.90;1.00;;;;;;6330598;28;20387;-56
2022/04/26 03:53:05;;;;;;;14.27;12.53;;;6.80;1.00;;;;;;6331667;28;20238;-55
2022/04/26 03:56:11;;;;;;;14.87;12.23;;;6.80;1.00;;;;;;6323574;28;20398;-53
2022/04/26 03:59:14;;;;;;;13.03;11.73;;;6.90;1.00;;;;;;6326479;28;20544;-57
2022/04/26 04:02:17;;;;;;;13.33;11.93;;;6.70;1.00;;;;;;6321408;28;20267;-55
2022/04/26 04:05:22;;;;;;;16.03;12.67;;;6.70;1.00;;;;;;6333228;28;20385;-55
2022/04/26 04:08:29;;;;;;;13.30;11.93;;;6.80;1.00;;;;;;6325229;28;20789;-53
2022/04/26 04:11:32;;;;;;;16.80;12.73;;;6.70;1.00;;;;;;6337988;27;20429;-53
2022/04/26 04:14:35;;;;;;;18.80;12.93;;;6.80;1.00;;;;;;6330335;27;20735;-54
2022/04/26 04:17:37;;;;;;;14.37;12.40;;;6.80;1.00;;;;;;6337779;27;20246;-56
2022/04/26 04:20:40;;;;;;;13.17;11.47;;;6.90;1.00;;;;;;6337950;28;20377;-55
2022/04/26 04:23:44;;;;;;;14.50;13.00;;;6.90;1.00;;;;;;6338733;27;20325;-55
2022/04/26 04:26:47;;;;;;;17.80;12.60;;;7.00;1.00;;;;;;6325232;28;20385;-56
2022/04/26 04:29:51;;;;;;;16.73;13.47;;;7.20;1.00;;;;;;6335134;27;20307;-55
2022/04/26 04:32:54;;;;;;;18.27;11.73;;;7.10;1.00;;;;;;6336199;27;20331;-56
2022/04/26 04:35:57;;;;;;;16.43;12.60;;;7.20;1.00;;;;;;6336808;27;20240;-53
2022/04/26 04:39:01;;;;;;;17.60;13.43;;;7.10;1.00;;;;;;6330375;27;20645;-54
2022/04/26 04:42:04;;;;;;;16.33;12.77;;;7.40;1.00;;;;;;6328916;28;20236;-55
2022/04/26 04:45:08;;;;;;;13.83;12.27;;;7.40;1.00;;;;;;6336425;27;20294;-56
2022/04/26 04:48:11;;;;;;;13.27;11.70;;;7.50;1.00;;;;;;6333687;27;20223;-56
2022/04/26 04:51:14;;;;;;;14.87;12.30;;;7.70;1.00;;;;;;6330007;27;20302;-55
2022/04/26 04:54:18;;;;;;;15.30;11.80;;;7.60;1.00;;;;;;6332286;27;20231;-54
2022/04/26 04:57:20;;;;;;;11.63;10.53;;;7.70;1.00;;;;;;6309565;27;20232;-55
2022/04/26 05:00:23;;;;;;;13.70;10.97;;;7.80;1.00;;;;;;6319574;28;20293;-55
2022/04/26 05:03:29;;;;;;;13.30;10.70;;;7.90;1.00;;;;;;6334987;27;20629;-56
2022/04/26 05:06:32;;;;;;;14.17;12.03;;;7.90;1.00;;;;;;6333844;27;20747;-56
2022/04/26 05:09:37;;;;;;;12.87;11.50;;;8.10;1.00;;;;;;6325006;28;20444;-63
2022/04/26 05:12:40;;;;;;;12.77;11.00;;;8.20;1.00;;;;;;6330271;28;20232;-55
2022/04/26 05:15:44;;;;;;;11.73;10.57;;;8.40;99.90;;;;;;6333627;28;20401;-55
2022/04/26 05:18:47;;;;;;;18.50;10.50;;;8.50;99.90;;;;;;6333714;27;20763;-54
2022/04/26 05:21:50;;;;;;;12.70;10.23;;;8.50;99.90;;;;;;6329856;27;20769;-55
2022/04/26 05:24:53;;;;;;;11.00;10.00;;;8.70;99.90;;;;;;6330464;28;20724;-55
2022/04/26 05:27:56;;;;;;;13.50;10.70;;;8.80;99.90;;;;;;6327669;28;20249;-56
2022/04/26 05:30:59;;;;;;;18.97;10.67;;;8.80;99.90;;;;;;6333631;27;20291;-55
2022/04/26 05:34:01;;;;;;;11.47;10.27;;;8.90;99.90;;;;;;6334782;27;20592;-54
2022/04/26 05:37:08;;;;;;;14.33;11.10;;;9.00;99.90;;;;;;6332014;28;20383;-56
2022/04/26 05:40:13;;;;;;;14.20;10.03;;;9.10;99.90;;;;;;6325560;28;20326;-56
2022/04/26 05:43:15;;;;;;;14.07;9.97;;;9.20;99.90;;;;;;6329740;27;20306;-56
2022/04/26 05:46:18;;;;;;;11.67;10.53;;;9.20;99.90;;;;;;6327575;27;20236;-54
2022/04/26 05:49:21;;;;;;;19.27;10.33;;;9.40;99.90;;;;;;6327663;28;20407;-56
2022/04/26 05:52:24;;;;;;;11.10;9.90;;;9.50;99.90;;;;;;6330353;28;20619;-54
2022/04/26 05:55:28;;;;;;;10.73;9.57;;;9.70;99.90;;;;;;6331087;27;20585;-55
2022/04/26 05:58:31;;;;;;;9.97;9.07;;;9.90;99.90;;;;;;6329881;27;20475;-55
2022/04/26 06:01:34;;;;;;;9.87;8.87;;;10.20;99.90;;;;;;6323114;27;20312;-55
2022/04/26 06:04:38;;;;;;;9.57;8.57;;;10.50;99.90;;;;;;6332292;28;20232;-54
2022/04/26 06:07:41;;;;;;;11.17;8.93;;;10.70;99.90;;;;;;6332074;28;20250;-54
2022/04/26 06:10:45;;;;;;;10.70;9.60;;;11.00;99.90;;;;;;6328485;28;20284;-56
2022/04/26 06:13:49;;;;;;;10.30;8.40;;;11.20;99.90;;;;;;6323396;27;20312;-56
2022/04/26 06:16:51;;;;;;;13.60;8.67;;;11.60;99.90;;;;;;6330084;28;20614;-55
2022/04/26 06:19:58;;;;;;;9.57;7.97;;;11.70;99.90;;;;;;6336219;27;20235;-55
2022/04/26 06:23:02;;;;;;;10.80;8.07;;;11.90;99.90;;;;;;6334862;27;20711;-56
2022/04/26 06:26:06;;;;;;;10.27;7.47;;;11.90;99.90;;;;;;6329753;27;20313;-53
2022/04/26 06:29:09;;;;;;;10.40;7.30;;;11.90;99.90;;;;;;6325789;28;20342;-54
2022/04/26 06:32:11;;;;;;;12.97;7.43;;;11.80;99.90;;;;;;6325355;28;20236;-54
2022/04/26 06:35:14;;;;;;;12.07;6.60;;;11.90;99.90;;;;;;6330633;28;20240;-56
2022/04/26 06:38:17;;;;;;;11.30;7.17;;;12.10;99.90;;;;;;6330824;27;20293;-55
2022/04/26 06:41:21;;;;;;;11.40;6.17;;;12.30;99.90;;;;;;6323414;28;20388;-54
2022/04/26 06:44:26;;;;;;;8.60;5.93;;;12.40;99.90;;;;;;6333522;28;20264;-56
2022/04/26 06:47:34;;;;;;;13.70;6.47;;;12.50;99.90;;;;;;6332708;28;20490;-54
2022/04/26 06:50:38;;;;;;;7.17;6.37;;;12.60;99.90;;;;;;6328137;28;20796;-55
2022/04/26 06:53:42;;;;;;;13.17;5.90;;;12.80;99.90;;;;;;6332569;28;20538;-55
2022/04/26 06:56:46;;;;;;;16.37;6.00;;;13.00;99.90;;;;;;6307528;28;20224;-55
2022/04/26 06:59:49;;;;;;;17.20;6.33;;;12.90;99.90;;;;;;6300672;28;20277;-55
2022/04/26 07:02:58;;;;;;;6.10;5.60;;;13.10;99.90;;;;;;6312048;27;20246;-55
2022/04/26 07:06:01;;;;;;;6.10;5.00;;;13.00;99.90;;;;;;6306726;28;20740;-55
2022/04/26 07:09:04;;;;;;;5.50;5.00;;;13.00;99.90;;;;;;6298741;28;20618;-56
2022/04/26 07:12:09;;;;;;;5.77;5.37;;;13.10;99.90;;;;;;6303856;28;20232;-54
2022/04/26 07:15:12;;;;;;;5.73;5.17;;;13.00;99.90;;;;;;6304777;28;20287;-56
2022/04/26 07:18:19;;;;;;;6.13;5.63;;;12.70;99.90;;;;;;6304195;28;20873;-56
2022/04/26 07:21:22;;;;;;;5.93;5.43;;;12.80;99.90;;;;;;6305821;28;20237;-54
2022/04/26 07:24:24;;;;;;;8.50;4.80;;;12.70;99.90;;;;;;6316879;28;20720;-55
2022/04/26 07:27:28;;;;;;;5.33;5.03;;;12.70;99.90;;;;;;6326006;28;20726;-55
2022/04/26 07:30:35;;;;;;;6.03;5.10;;;12.60;99.90;;;;;;6323702;27;20386;-56
2022/04/26 07:37:02;;;;;;;5.27;4.87;;;12.90;99.90;;;;;;6329924;28;20236;-55
2022/04/26 07:40:07;;;;;;;4.73;4.47;;;13.00;99.90;;;;;;6320675;28;20243;-56
2022/04/26 07:43:11;;;;;;;4.70;4.30;;;13.10;99.90;;;;;;6334663;28;20708;-53
2022/04/26 07:46:15;;;;;;;7.00;4.63;;;13.30;99.90;;;;;;6337585;27;20242;-55
2022/04/26 07:49:23;;;;;;;5.03;4.23;;;13.10;99.90;;;;;;6308485;27;20235;-55
2022/04/26 07:52:28;;;;;;;4.83;4.53;;;13.20;99.90;;;;;;6325019;27;20742;-54
2022/04/26 07:55:32;;;;;;;8.07;4.10;;;13.10;99.90;;;;;;6304841;28;20325;-55
2022/04/26 07:58:36;;;;;;;3.90;3.63;;;13.10;99.90;;;;;;6306796;28;20389;-55
2022/04/26 08:01:40;;;;;;;4.93;4.27;;;13.00;99.90;;;;;;6316630;27;20323;-56
2022/04/26 08:04:46;;;;;;;3.60;3.50;;;13.20;99.90;;;;;;6335850;27;20239;-56
2022/04/26 08:07:49;;;;;;;3.07;3.00;;;13.30;99.90;;;;;;6309307;27;20341;-56
2022/04/26 08:10:52;;;;;;;8.43;3.13;;;13.40;99.90;;;;;;6297433;28;20248;-55
2022/04/26 08:14:05;;;;;;;3.97;3.67;;;13.40;99.90;;;;;;6309308;28;20756;-55
2022/04/26 08:17:08;;;;;;;3.40;3.30;;;13.20;99.90;;;;;;6309887;28;20243;-55
2022/04/26 08:20:11;;;;;;;3.83;3.57;;;13.40;99.90;;;;;;6299315;28;20434;-53
2022/04/26 08:23:14;;;;;;;5.13;3.73;;;13.40;99.90;;;;;;6304533;28;20918;-54
2022/04/26 08:29:38;;;;;;;3.93;3.63;;;13.70;99.90;;;;;;6301681;27;20597;-56
2022/04/26 08:32:42;;;;;;;3.83;3.53;;;13.80;99.90;;;;;;6330734;27;20618;-55
2022/04/26 08:35:45;;;;;;;3.97;3.60;;;13.90;99.90;;;;;;6327958;27;20767;-55
2022/04/26 08:39:05;;;;;;;3.70;3.43;;;13.80;99.90;;;;;;6328598;27;20236;-56
2022/04/26 08:42:08;;;;;;;2.77;2.63;;;14.00;99.90;;;;;;6332709;28;20259;-55
2022/04/26 08:45:22;;;;;;;3.50;3.30;;;14.10;99.90;;;;;;6334921;27;20720;-56
2022/04/26 08:51:47;;;;;;;3.77;3.47;;;14.20;99.90;;;;;;6334198;28;20235;-55
2022/04/26 08:54:50;;;;;;;3.93;3.17;;;14.40;99.90;;;;;;6332520;28;20525;-56
2022/04/26 08:57:53;;;;;;;4.30;3.90;;;14.40;99.90;;;;;;6332329;27;20272;-56
2022/04/26 09:01:16;;;;;;;6.93;3.83;;;14.40;99.90;;;;;;6334956;27;20234;-55
2022/04/26 09:04:19;;;;;;;3.77;3.57;;;14.30;99.90;;;;;;6300760;28;20241;-56
2022/04/26 09:07:30;;;;;;;4.87;3.27;;;14.30;99.90;;;;;;6301797;28;20721;-56
2022/04/26 09:10:33;;;;;;;3.70;3.50;;;14.50;99.90;;;;;;6305276;28;20248;-55
2022/04/26 09:13:41;;;;;;;4.87;3.67;;;14.60;99.90;;;;;;6302343;28;20312;-56
2022/04/26 09:16:47;;;;;;;4.00;3.80;;;14.70;99.90;;;;;;6321869;27;20651;-54
2022/04/26 09:19:53;;;;;;;9.53;4.17;;;14.70;99.90;;;;;;6307372;28;20233;-55
2022/04/26 09:22:59;;;;;;;4.33;3.57;;;14.80;99.90;;;;;;6307171;28;20233;-55
2022/04/26 09:26:07;;;;;;;4.00;3.70;;;14.90;99.90;;;;;;6307958;28;20273;-54
2022/04/26 09:29:19;;;;;;;3.60;3.30;;;15.00;99.90;;;;;;6301586;28;20335;-55
2022/04/26 09:32:24;;;;;;;4.20;3.87;;;15.10;99.90;;;;;;6310358;28;20363;-55
2022/04/26 09:35:29;;;;;;;3.67;3.57;;;15.20;99.90;;;;;;6335612;27;20243;-55
2022/04/26 09:38:34;;;;;;;3.50;3.40;;;15.20;99.90;;;;;;6330200;28;20239;-55
2022/04/26 09:41:38;;;;;;;3.60;3.50;;;15.30;99.90;;;;;;6298758;28;20403;-51
2022/04/26 09:44:42;;;;;;;3.93;3.73;;;15.40;99.90;;;;;;6307771;28;20650;-54
2022/04/26 09:47:50;;;;;;;5.27;3.67;;;15.60;99.90;;;;;;6306704;28;20331;-54
2022/04/26 09:50:57;;;;;;;3.90;3.63;;;15.60;99.90;;;;;;6298173;28;20229;-55
2022/04/26 09:53:59;;;;;;;3.80;3.20;;;15.40;99.90;;;;;;6309558;28;20521;-55
2022/04/26 09:57:06;;;;;;;3.70;3.50;;;15.40;99.90;;;;;;6307047;28;20378;-53
2022/04/26 10:00:39;;;;;;;4.20;4.00;;;15.50;99.90;;;;;;6297710;28;20225;-56
2022/04/26 10:03:47;;;;;;;4.23;4.07;;;15.70;99.90;;;;;;6314885;28;20243;-56
2022/04/26 10:06:52;;;;;;;4.30;4.10;;;15.80;99.90;;;;;;6332456;28;20302;-56
2022/04/26 10:09:55;;;;;;;4.43;4.03;;;15.90;99.90;;;;;;6325572;27;20236;-54
2022/04/26 10:16:21;;;;;;;3.70;3.60;;;16.10;99.90;;;;;;6314559;28;20248;-56
2022/04/26 10:19:39;;;;;;;3.73;3.63;;;16.10;99.90;;;;;;6329129;28;20318;-55
2022/04/26 10:22:58;;;;;;;4.20;4.10;;;16.20;99.90;;;;;;6336087;28;20356;-56
2022/04/26 10:26:24;;;;;;;4.73;4.30;;;16.20;99.90;;;;;;6326785;28;20784;-55
2022/04/26 10:29:27;;;;;;;4.00;3.90;;;16.20;99.90;;;;;;6335738;27;20246;-57
2022/04/26 10:32:31;;;;;;;4.17;3.97;;;16.30;99.90;;;;;;6335334;28;20301;-54
2022/04/26 10:35:36;;;;;;;4.43;4.07;;;16.30;99.90;;;;;;6330137;27;20432;-56
2022/04/26 10:38:40;;;;;;;4.57;4.03;;;16.20;99.90;;;;;;6326744;27;20312;-55
2022/04/26 10:41:47;;;;;;;3.83;3.70;;;16.40;99.90;;;;;;6324869;28;20270;-54
2022/04/26 10:44:51;;;;;;;3.97;3.77;;;16.60;99.90;;;;;;6329196;28;20281;-55
2022/04/26 10:47:55;;;;;;;3.17;3.17;;;16.70;99.90;;;;;;6325943;28;20231;-57
2022/04/26 10:51:34;;;;;;;3.53;3.40;;;16.70;99.90;;;;;;6325191;28;20243;-55
2022/04/26 10:55:05;;;;;;;4.50;4.10;;;16.80;99.90;;;;;;6324115;28;20710;-56
2022/04/26 10:58:08;;;;;;;4.33;4.20;;;16.90;99.90;;;;;;6300583;28;20324;-54
2022/04/26 11:01:24;;;;;;;4.43;4.17;;;17.00;99.90;;;;;;6315418;28;20277;-55
2022/04/26 11:04:27;;;;;;;4.00;3.80;;;17.00;99.90;;;;;;6299615;28;20765;-55
2022/04/26 11:07:32;;;;;;;4.83;4.40;;;17.00;99.90;;;;;;6307063;28;20263;-54
2022/04/26 11:14:03;;;;;;;6.60;4.27;;;17.10;99.90;;;;;;6300100;28;20763;-55
2022/04/26 11:17:06;;;;;;;4.10;3.70;;;17.30;99.90;;;;;;6312812;28;20327;-55
2022/04/26 11:20:13;;;;;;;3.97;3.77;;;17.40;99.90;;;;;;6308833;28;20244;-53
2022/04/26 11:30:31;;;;;;;3.40;3.20;;;17.60;99.90;;;;;;6306864;28;20315;-55
2022/04/26 11:33:49;;;;;;;4.17;3.77;;;17.50;99.90;;;;;;6311423;28;20233;-56
2022/04/26 11:36:53;;;;;;;4.03;3.90;;;17.40;99.90;;;;;;6311962;28;20378;-54
2022/04/26 11:40:01;;;;;;;4.33;3.97;;;17.40;99.90;;;;;;6300278;28;20838;-55
2022/04/26 11:43:09;;;;;;;4.53;3.93;;;17.60;99.90;;;;;;6311797;28;20353;-55
2022/04/26 11:46:12;;;;;;;4.30;3.90;;;17.60;99.90;;;;;;6312478;28;20249;-55
2022/04/26 11:49:15;;;;;;;4.57;4.23;;;17.60;99.90;;;;;;6305337;28;20638;-55
2022/04/26 11:52:23;;;;;;;4.10;4.00;;;17.70;99.90;;;;;;6311046;28;20341;-55
2022/04/26 11:55:29;;;;;;;4.00;3.80;;;17.50;99.90;;;;;;6309478;28;20344;-55
2022/04/26 11:58:33;;;;;;;4.07;3.90;;;17.70;99.90;;;;;;6306288;28;20240;-54
2022/04/26 12:01:37;;;;;;;4.40;4.00;;;17.90;99.90;;;;;;6310563;28;20315;-56
2022/04/26 12:04:40;;;;;;;11.33;3.97;;;18.10;99.90;;;;;;6311250;28;20239;-55
2022/04/26 12:07:43;;;;;;;3.83;3.70;;;18.30;99.90;;;;;;6318335;28;20716;-56
2022/04/26 12:10:48;;;;;;;4.73;3.70;;;18.50;99.90;;;;;;6300930;28;20971;-55
2022/04/26 12:14:01;;;;;;;4.30;4.00;;;18.40;99.90;;;;;;6336779;27;20312;-54
2022/04/26 12:17:15;;;;;;;3.80;3.60;;;18.40;99.90;;;;;;6336348;28;20232;-55
2022/04/26 12:20:18;;;;;;;3.77;3.67;;;18.40;99.90;;;;;;6332298;27;20724;-55
2022/04/26 12:23:22;;;;;;;3.43;3.33;;;18.70;99.90;;;;;;6336985;27;20369;-55
2022/04/26 12:26:26;;;;;;;3.60;3.30;;;19.00;99.90;;;;;;6328593;27;20236;-56
2022/04/26 12:29:30;;;;;;;5.13;3.20;;;19.00;99.90;;;;;;6325890;28;20236;-55
2022/04/26 12:32:41;;;;;;;3.80;3.37;;;18.80;99.90;;;;;;6317294;27;20225;-55
2022/04/26 12:35:57;;;;;;;3.80;3.60;;;18.50;99.90;;;;;;6315009;27;21034;-56
2022/04/26 12:39:01;;;;;;;3.70;3.60;;;18.40;99.90;;;;;;6304772;27;20426;-54
2022/04/26 12:42:07;;;;;;;4.60;3.53;;;18.20;99.90;;;;;;6313611;28;20237;-56
2022/04/26 12:45:13;;;;;;;4.47;3.70;;;18.20;99.90;;;;;;6314637;28;20665;-55
2022/04/26 12:51:53;;;;;;;3.33;3.23;;;18.60;99.90;;;;;;6291305;28;20321;-54
2022/04/26 12:54:56;;;;;;;3.47;3.37;;;18.70;99.90;;;;;;6315006;28;20322;-53
2022/04/26 12:58:02;;;;;;;3.93;3.73;;;18.80;99.90;;;;;;6315268;27;20615;-56
2022/04/26 13:01:07;;;;;;;4.07;3.87;;;18.70;99.90;;;;;;6313456;28;20252;-56
2022/04/26 13:04:10;;;;;;;3.80;3.60;;;18.40;99.90;;;;;;6314088;27;20274;-55
2022/04/26 13:07:13;;;;;;;3.60;3.30;;;17.90;99.90;;;;;;6293880;28;20232;-54
2022/04/26 13:10:17;;;;;;;3.40;3.13;;;17.80;99.90;;;;;;6311537;28;20429;-55
2022/04/26 13:13:21;;;;;;;3.50;3.40;;;17.80;99.90;;;;;;6309915;27;20234;-55
2022/04/26 13:16:24;;;;;;;3.20;3.10;;;17.90;99.90;;;;;;6309314;27;20241;-55
2022/04/26 13:19:27;;;;;;;4.40;3.80;;;18.10;99.90;;;;;;6313008;27;20229;-55
2022/04/26 13:22:30;;;;;;;3.83;3.63;;;18.20;99.90;;;;;;6314873;28;20240;-55
2022/04/26 13:25:32;;;;;;;3.30;3.13;;;18.30;99.90;;;;;;6313642;28;20263;-55
2022/04/26 13:28:36;;;;;;;3.70;3.60;;;18.30;99.90;;;;;;6330309;27;20328;-54
2022/04/26 13:31:39;;;;;;;5.43;3.40;;;18.30;99.90;;;;;;6332506;28;20265;-56
2022/04/26 13:34:44;;;;;;;3.10;3.10;;;18.50;99.90;;;;;;6326123;28;20795;-54
2022/04/26 13:37:47;;;;;;;3.63;3.40;;;18.50;99.90;;;;;;6326647;27;20237;-56
2022/04/26 13:40:52;;;;;;;3.77;3.47;;;18.50;99.90;;;;;;6311091;27;20241;-54
2022/04/26 13:43:58;;;;;;;3.27;2.97;;;18.60;99.90;;;;;;6305823;28;20300;-53
2022/04/26 13:47:02;;;;;;;3.63;3.43;;;18.80;99.90;;;;;;6341873;27;20845;-53
2022/04/26 13:50:09;;;;;;;3.47;3.27;;;18.90;99.90;;;;;;6332305;28;20841;-55
2022/04/26 13:53:12;;;;;;;3.20;3.00;;;18.90;99.90;;;;;;6334470;28;20364;-55
2022/04/26 13:56:15;;;;;;;3.20;3.10;;;19.10;99.90;;;;;;6331163;27;20263;-55
2022/04/26 13:59:19;;;;;;;3.17;3.10;;;19.30;99.90;;;;;;6331000;27;20267;-54
2022/04/26 14:02:22;;;;;;;3.57;3.37;;;19.30;99.90;;;;;;6331382;27;20322;-55
2022/04/26 14:05:27;;;;;;;3.40;3.30;;;19.30;99.90;;;;;;6334010;28;20236;-55
2022/04/26 14:08:31;;;;;;;4.13;3.33;;;19.20;99.90;;;;;;6328869;28;20261;-54
2022/04/26 14:11:34;;;;;;;3.03;2.93;;;19.00;99.90;;;;;;6329993;27;20239;-56
2022/04/26 14:24:53;;;;;;;2.80;2.73;;;18.10;99.90;;;;;;6270567;28;20259;-54
2022/04/26 14:27:56;;;;;;;3.43;3.20;;;18.00;99.90;;;;;;6306073;28;20240;-54
2022/04/26 14:31:01;;;;;;;3.10;2.90;;;18.00;99.90;;;;;;6305375;28;20236;-55
2022/04/26 14:34:07;;;;;;;3.27;3.13;;;17.80;99.90;;;;;;6308286;28;20232;-54
2022/04/26 14:37:10;;;;;;;3.13;3.03;;;17.80;99.90;;;;;;6306651;28;20335;-54
2022/04/26 14:40:13;;;;;;;3.10;3.10;;;17.80;99.90;;;;;;6301371;27;20754;-55
2022/04/26 14:43:15;;;;;;;2.80;2.80;;;17.80;99.90;;;;;;6311419;28;20236;-54
2022/04/26 14:46:20;;;;;;;3.37;3.10;;;17.80;99.90;;;;;;6331331;27;20259;-55
2022/04/26 14:49:23;;;;;;;2.83;2.63;;;18.00;99.90;;;;;;6307650;27;20733;-56
2022/04/26 14:52:25;;;;;;;3.70;3.37;;;18.10;99.90;;;;;;6325110;27;20520;-55
2022/04/26 14:55:49;;;;;;;2.90;2.70;;;18.20;99.90;;;;;;6301904;28;20236;-55
2022/04/26 14:58:52;;;;;;;3.67;3.47;;;18.30;99.90;;;;;;6313596;28;20370;-54
2022/04/26 15:01:56;;;;;;;3.43;3.23;;;18.20;99.90;;;;;;6307569;28;20229;-57
2022/04/26 15:05:03;;;;;;;2.30;2.30;;;18.10;99.90;;;;;;6310997;27;20712;-55
2022/04/26 15:11:26;;;;;;;3.07;3.07;;;18.10;99.90;;;;;;6300586;28;20233;-55
2022/04/26 15:17:53;;;;;;;3.10;2.83;;;17.80;99.90;;;;;;6293927;28;20229;-55
2022/04/26 15:20:56;;;;;;;3.57;3.37;;;17.70;99.90;;;;;;6305752;28;20235;-56
2022/04/26 15:24:00;;;;;;;3.40;3.10;;;17.60;99.90;;;;;;6301810;28;20258;-54
2022/04/26 15:27:04;;;;;;;2.93;2.83;;;17.70;99.90;;;;;;6301996;28;20297;-54
2022/04/26 15:30:09;;;;;;;2.73;2.73;;;17.90;99.90;;;;;;6309360;28;20540;-56
2022/04/26 15:33:18;;;;;;;3.47;3.37;;;18.20;99.90;;;;;;6332035;27;20325;-55
2022/04/26 15:36:21;;;;;;;3.43;3.13;;;18.20;99.90;;;;;;6341534;27;20344;-54
2022/04/26 15:39:28;;;;;;;3.20;3.00;;;18.10;99.90;;;;;;6313063;28;20400;-55
2022/04/26 15:42:32;;;;;;;3.30;3.20;;;18.10;99.90;;;;;;6330850;27;20481;-55
2022/04/26 15:45:36;;;;;;;2.83;2.73;;;18.10;99.90;;;;;;6330541;28;20258;-55
2022/04/26 15:48:44;;;;;;;3.20;2.97;;;18.00;99.90;;;;;;6329904;28;20356;-55
2022/04/26 15:51:47;;;;;;;2.90;2.70;;;17.90;99.90;;;;;;6331584;28;20315;-55
2022/04/26 15:54:50;;;;;;;2.97;2.87;;;17.90;99.90;;;;;;6317419;28;20289;-55
2022/04/26 15:57:54;;;;;;;3.03;2.87;;;17.90;99.90;;;;;;6327797;28;20239;-56
2022/04/26 16:00:57;;;;;;;3.30;3.00;;;17.80;99.90;;;;;;6332827;27;20239;-54
2022/04/26 16:04:01;;;;;;;3.00;2.90;;;17.70;99.90;;;;;;6328623;27;20290;-55
2022/04/26 16:07:04;;;;;;;2.97;2.80;;;17.70;99.90;;;;;;6314779;28;20256;-55
2022/04/26 16:20:29;;;;;;;4.07;2.87;;;17.40;99.90;;;;;;6310495;28;20368;-54
2022/04/26 16:23:33;;;;;;;3.33;3.13;;;17.30;99.90;;;;;;6315686;28;20319;-56
2022/04/26 16:26:36;;;;;;;3.13;3.10;;;17.20;99.90;;;;;;6323231;27;20319;-54
2022/04/26 16:29:40;;;;;;;3.17;3.07;;;17.10;99.90;;;;;;6314770;27;20280;-55
2022/04/26 16:32:44;;;;;;;3.90;3.30;;;17.20;99.90;;;;;;6310854;28;20248;-55
2022/04/26 16:35:48;;;;;;;3.23;3.13;;;17.10;99.90;;;;;;6306579;28;20413;-55
2022/04/26 16:38:50;;;;;;;3.40;3.10;;;17.20;99.90;;;;;;6297670;28;20499;-55
2022/04/26 16:41:53;;;;;;;3.70;3.50;;;17.10;99.90;;;;;;6294682;28;20316;-54
2022/04/26 16:44:56;;;;;;;3.47;3.27;;;17.10;99.90;;;;;;6297098;28;20232;-55
2022/04/26 16:47:58;;;;;;;3.50;3.30;;;17.00;99.90;;;;;;6288777;28;20237;-55
2022/04/26 16:51:04;;;;;;;2.97;2.93;;;17.00;99.90;;;;;;6313987;28;20478;-55
2022/04/26 16:54:07;;;;;;;4.10;3.80;;;17.00;99.90;;;;;;6322788;27;20270;-53
2022/04/26 16:57:11;;;;;;;3.33;3.30;;;17.00;99.90;;;;;;6318247;28;20236;-55
2022/04/26 17:00:15;;;;;;;3.20;3.00;;;16.90;99.90;;;;;;6326173;27;20259;-55
2022/04/26 17:03:18;;;;;;;3.83;3.27;;;16.80;99.90;;;;;;6323665;28;20240;-53
2022/04/26 17:06:28;;;;;;;3.30;3.10;;;16.70;99.90;;;;;;6324739;27;20308;-61
2022/04/26 17:09:34;;;;;;;4.23;3.47;;;16.60;99.90;;;;;;6313996;28;20346;-55
2022/04/26 17:12:37;;;;;;;3.13;3.03;;;16.60;99.90;;;;;;6316721;27;20309;-54
2022/04/26 17:15:40;;;;;;;4.40;3.57;;;16.60;99.90;;;;;;6314763;27;20362;-54
2022/04/26 17:18:43;;;;;;;3.47;3.17;;;16.60;99.90;;;;;;6310855;27;20483;-60
2022/04/26 17:21:47;;;;;;;3.20;3.10;;;16.50;99.90;;;;;;6309699;27;20571;-56
2022/04/26 17:28:31;;;;;;;3.30;3.10;;;16.40;99.90;;;;;;6286825;27;20237;-55
2022/04/26 17:31:34;;;;;;;3.30;3.20;;;16.40;99.90;;;;;;6293721;27;20868;-56
2022/04/26 17:34:37;;;;;;;3.57;3.43;;;16.30;99.90;;;;;;6300938;27;20248;-56
2022/04/26 17:37:44;;;;;;;3.60;3.47;;;16.30;99.90;;;;;;6290050;27;20228;-54
2022/04/26 17:40:46;;;;;;;4.30;3.10;;;16.30;99.90;;;;;;6298932;27;20588;-56
2022/04/26 17:43:52;;;;;;;3.33;3.20;;;16.20;99.90;;;;;;6301194;27;20317;-56
2022/04/26 17:46:54;;;;;;;3.17;2.93;;;16.10;99.90;;;;;;6300381;27;20638;-56
2022/04/26 17:50:17;;;;;;;3.50;3.30;;;16.10;99.90;;;;;;6297759;27;20289;-57
2022/04/26 17:56:43;;;;;;;3.50;3.30;;;15.90;99.90;;;;;;6273472;28;20321;-57
2022/04/26 17:59:46;;;;;;;3.30;3.10;;;15.80;99.90;;;;;;6292729;27;20692;-56
2022/04/26 18:02:49;;;;;;;3.47;3.27;;;15.70;99.90;;;;;;6313123;27;20312;-55
2022/04/26 18:05:52;;;;;;;3.33;3.33;;;15.70;99.90;;;;;;6320598;27;20309;-55
2022/04/26 18:09:01;;;;;;;3.57;3.30;;;15.60;99.90;;;;;;6327283;27;20858;-55
2022/04/26 18:12:05;;;;;;;3.30;3.20;;;15.60;99.90;;;;;;6327988;27;20326;-55
2022/04/26 18:15:09;;;;;;;3.17;3.07;;;15.50;99.90;;;;;;6320751;28;20729;-52
2022/04/26 18:18:12;;;;;;;3.33;3.10;;;15.50;99.90;;;;;;6326938;28;20347;-55
2022/04/26 18:21:17;;;;;;;3.23;3.10;;;15.40;99.90;;;;;;6332047;28;20308;-54
2022/04/26 18:24:21;;;;;;;6.77;3.73;;;15.30;99.90;;;;;;6323253;27;20850;-56
2022/04/26 18:27:24;;;;;;;3.93;3.73;;;15.20;99.90;;;;;;6326053;27;20808;-55
2022/04/26 18:30:27;;;;;;;3.80;3.50;;;15.10;99.90;;;;;;6330464;27;20713;-55
2022/04/26 18:33:30;;;;;;;3.40;3.30;;;15.00;99.90;;;;;;6332915;27;20231;-56
2022/04/26 18:36:32;;;;;;;3.43;3.33;;;14.90;99.90;;;;;;6327915;27;20228;-56
2022/04/26 18:39:36;;;;;;;3.80;3.60;;;14.80;99.90;;;;;;6321141;27;20310;-55
2022/04/26 18:42:39;;;;;;;4.17;3.97;;;14.70;99.90;;;;;;6331303;28;20236;-54
2022/04/26 18:45:42;;;;;;;3.87;3.77;;;14.60;99.90;;;;;;6335993;27;20231;-56
2022/04/26 18:48:45;;;;;;;3.87;3.70;;;14.50;99.90;;;;;;6323927;28;20666;-55
2022/04/26 18:51:47;;;;;;;4.27;3.97;;;14.50;99.90;;;;;;6305011;28;20673;-55
2022/04/26 18:54:51;;;;;;;4.20;3.93;;;14.40;99.90;;;;;;6299753;28;20320;-55
2022/04/26 18:58:00;;;;;;;4.03;3.93;;;14.40;99.90;;;;;;6302726;28;20378;-54
2022/04/26 19:01:03;;;;;;;4.70;4.40;;;14.30;99.90;;;;;;6312874;27;20372;-55
2022/04/26 19:04:06;;;;;;;4.50;4.30;;;14.30;99.90;;;;;;6326792;28;20243;-56
2022/04/26 19:07:09;;;;;;;3.93;3.83;;;14.20;99.90;;;;;;6332036;28;20247;-55
2022/04/26 19:13:35;;;;;;;4.47;4.10;;;14.20;99.90;;;;;;6326586;27;20288;-55
2022/04/26 19:16:38;;;;;;;4.60;4.07;;;14.20;99.90;;;;;;6331497;28;20232;-55
2022/04/26 19:19:40;;;;;;;4.47;4.27;;;14.20;99.90;;;;;;6324746;28;20366;-55
2022/04/26 19:22:43;;;;;;;4.57;4.27;;;14.10;99.90;;;;;;6328806;28;20524;-55
2022/04/26 19:25:47;;;;;;;4.83;4.50;;;14.10;99.90;;;;;;6328136;27;20520;-55
2022/04/26 19:28:50;;;;;;;5.17;4.60;;;14.10;99.90;;;;;;6326041;28;20381;-55
2022/04/26 19:31:54;;;;;;;5.07;4.77;;;14.10;99.90;;;;;;6325877;28;20254;-56
2022/04/26 19:34:56;;;;;;;5.93;5.53;;;14.10;99.90;;;;;;6330224;28;20474;-55
2022/04/26 19:37:59;;;;;;;5.87;5.57;;;14.10;99.90;;;;;;6331201;28;20322;-55
2022/04/26 19:41:05;;;;;;;5.67;5.27;;;14.10;99.90;;;;;;6328092;28;20235;-55
2022/04/26 19:44:08;;;;;;;4.93;4.73;;;14.10;99.90;;;;;;6334834;27;20268;-55
2022/04/26 19:47:10;;;;;;;4.60;4.50;;;14.10;99.90;;;;;;6334709;27;20236;-59
2022/04/26 19:53:34;;;;;;;4.57;4.37;;;14.00;99.90;;;;;;6308336;28;20239;-55
2022/04/26 19:56:41;;;;;;;4.40;4.30;;;13.90;99.90;;;;;;6306128;28;20242;-53
2022/04/26 19:59:44;;;;;;;5.33;5.13;;;13.90;99.90;;;;;;6293333;28;20244;-54
2022/04/26 20:02:47;;;;;;;4.57;4.37;;;13.80;99.90;;;;;;6333023;27;20317;-55
2022/04/26 20:05:52;;;;;;;5.07;4.80;;;13.80;99.90;;;;;;6313339;27;20623;-55
2022/04/26 20:08:55;;;;;;;5.63;5.13;;;13.80;99.90;;;;;;6311668;28;20483;-54
2022/04/26 20:11:59;;;;;;;5.90;5.50;;;13.80;99.90;;;;;;6312400;27;20370;-54
2022/04/26 20:15:02;;;;;;;5.70;5.30;;;13.70;99.90;;;;;;6298382;28;20307;-53
2022/04/26 20:18:05;;;;;;;5.20;4.90;;;13.70;99.90;;;;;;6301974;28;20662;-53
2022/04/26 20:21:12;;;;;;;5.60;5.00;;;13.70;99.90;;;;;;6307978;28;20328;-55
2022/04/26 20:24:14;;;;;;;5.47;5.07;;;13.70;99.90;;;;;;6296098;28;20318;-54
2022/04/26 20:30:50;;;;;;;4.63;4.43;;;13.70;99.90;;;;;;6302600;28;20339;-59
2022/04/26 20:33:54;;;;;;;5.27;4.97;;;13.60;99.90;;;;;;6305844;28;20757;-55
2022/04/26 20:37:13;;;;;;;5.33;4.83;;;13.60;99.90;;;;;;6301096;28;20253;-55
2022/04/26 20:40:17;;;;;;;5.10;4.90;;;13.60;99.90;;;;;;6306313;28;20731;-55
2022/04/26 20:43:21;;;;;;;5.40;4.90;;;13.60;99.90;;;;;;6305654;28;20394;-55
2022/04/26 20:46:24;;;;;;;5.33;4.93;;;13.60;99.90;;;;;;6309632;28;20309;-55
2022/04/26 20:49:26;;;;;;;5.57;5.10;;;13.50;99.90;;;;;;6297066;28;20354;-55